createdAt,value
2018-01-03T00:00:13.285Z,3.9
2018-01-03T00:01:12.490Z,3.9
2018-01-03T00:02:11.279Z,3.9
2018-01-03T00:03:10.180Z,3.9
2018-01-03T00:04:09.180Z,3.9
2018-01-03T00:06:07.168Z,4
2018-01-03T00:07:06.067Z,4.1
2018-01-03T00:08:05.169Z,4
2018-01-03T00:09:04.280Z,4.1
2018-01-03T00:10:03.341Z,4
2018-01-03T00:11:02.512Z,4.1
2018-01-03T00:12:01.519Z,4.1
2018-01-03T00:13:00.419Z,4.1
2018-01-03T00:13:59.533Z,4.1
2018-01-03T00:14:58.436Z,4.1
2018-01-03T00:15:57.646Z,4.2
2018-01-03T00:16:56.441Z,4.2
2018-01-03T00:17:55.541Z,4.2
2018-01-03T00:18:54.433Z,4.2
2018-01-03T00:19:53.428Z,4.2
2018-01-03T00:21:51.817Z,4.2
2018-01-03T00:22:50.814Z,4.2
2018-01-03T00:24:48.834Z,4.2
2018-01-03T00:25:47.327Z,4.2
2018-01-03T00:26:46.934Z,4.3
2018-01-03T00:27:45.644Z,4.3
2018-01-03T00:28:44.753Z,4.3
2018-01-03T00:29:43.760Z,4.3
2018-01-03T00:30:42.755Z,4.3
2018-01-03T00:31:41.760Z,4.4
2018-01-03T00:32:40.676Z,4.4
2018-01-03T00:33:39.893Z,4.4
2018-01-03T00:34:38.712Z,4.4
2018-01-03T00:35:08.928Z,4.4
2018-01-03T00:35:39.039Z,4.4
2018-01-03T00:36:09.569Z,4.4
2018-01-03T00:37:35.854Z,4.4
2018-01-03T00:38:34.872Z,4.5
2018-01-03T00:39:34.088Z,4.5
2018-01-03T00:40:32.837Z,4.5
2018-01-03T00:41:31.948Z,4.5
2018-01-03T00:42:31.092Z,4.5
2018-01-03T00:43:30.100Z,4.5
2018-01-03T00:44:29.133Z,4.6
2018-01-03T00:45:28.210Z,4.6
2018-01-03T00:46:27.110Z,4.5
2018-01-03T00:47:26.004Z,4.6
2018-01-03T00:48:25.104Z,4.6
2018-01-03T00:49:24.261Z,4.6
2018-01-03T00:51:22.033Z,4.6
2018-01-03T00:52:21.128Z,4.6
2018-01-03T00:53:20.348Z,4.6
2018-01-03T00:54:19.430Z,4.6
2018-01-03T00:56:17.333Z,4.6
2018-01-03T00:57:16.336Z,4.6
2018-01-03T00:58:15.334Z,4.6
2018-01-03T00:59:14.336Z,4.6
2018-01-03T01:00:13.442Z,4.7
2018-01-03T01:00:43.651Z,4.7
2018-01-03T01:01:13.859Z,4.6
2018-01-03T01:02:11.354Z,4.7
2018-01-03T01:03:10.463Z,4.7
2018-01-03T01:04:09.469Z,4.7
2018-01-03T01:05:08.485Z,4.7
2018-01-03T01:06:07.286Z,4.7
2018-01-03T01:07:06.292Z,4.7
2018-01-03T01:08:05.593Z,4.7
2018-01-03T01:09:04.602Z,4.7
2018-01-03T01:10:03.819Z,4.7
2018-01-03T01:11:02.649Z,4.7
2018-01-03T01:11:33.073Z,4.7
2018-01-03T01:12:03.788Z,4.8
2018-01-03T01:13:00.885Z,4.8
2018-01-03T01:13:59.387Z,4.8
2018-01-03T01:14:58.605Z,4.8
2018-01-03T01:15:57.601Z,4.8
2018-01-03T01:16:56.497Z,4.8
2018-01-03T01:17:55.934Z,4.8
2018-01-03T01:18:54.715Z,4.8
2018-01-03T01:20:52.708Z,4.8
2018-01-03T01:21:51.813Z,4.8
2018-01-03T01:22:50.710Z,4.8
2018-01-03T01:23:50.103Z,4.8
2018-01-03T01:24:49.202Z,4.9
2018-01-03T01:25:47.812Z,4.9
2018-01-03T01:26:46.915Z,4.9
2018-01-03T01:27:46.023Z,4.9
2018-01-03T01:28:45.231Z,4.9
2018-01-03T01:29:44.234Z,4.9
2018-01-03T01:30:43.049Z,4.9
2018-01-03T01:31:42.052Z,5
2018-01-03T01:32:41.054Z,5.1
2018-01-03T01:33:40.060Z,5.1
2018-01-03T01:34:38.954Z,5.1
2018-01-03T01:35:38.067Z,5.1
2018-01-03T01:36:37.568Z,5.1
2018-01-03T01:37:36.276Z,5.2
2018-01-03T01:38:35.488Z,5.2
2018-01-03T01:39:34.387Z,5.2
2018-01-03T01:40:33.390Z,5.3
2018-01-03T01:41:32.708Z,5.3
2018-01-03T01:43:30.592Z,5.3
2018-01-03T01:44:29.487Z,5.3
2018-01-03T01:45:28.489Z,5.4
2018-01-03T01:46:27.800Z,5.4
2018-01-03T01:47:26.693Z,5.4
2018-01-03T01:48:25.586Z,5.4
2018-01-03T01:49:24.803Z,5.4
2018-01-03T01:50:23.799Z,5.4
2018-01-03T01:51:22.965Z,5.4
2018-01-03T01:51:53.180Z,5.4
2018-01-03T01:52:23.600Z,5.4
2018-01-03T01:52:53.909Z,5.4
2018-01-03T01:54:19.982Z,5.4
2018-01-03T01:55:19.190Z,5.3
2018-01-03T01:56:17.697Z,5.3
2018-01-03T01:57:16.915Z,5.3
2018-01-03T01:58:15.740Z,5.3
2018-01-03T01:59:14.844Z,5.3
2018-01-03T02:00:14.066Z,5.3
2018-01-03T02:01:13.290Z,5.3
2018-01-03T02:02:12.109Z,5.3
2018-01-03T02:03:11.216Z,5.4
2018-01-03T02:05:09.215Z,5.4
2018-01-03T02:07:07.311Z,5.4
2018-01-03T02:08:06.526Z,5.3
2018-01-03T02:09:05.638Z,5.4
2018-01-03T02:10:04.428Z,5.4
2018-01-03T02:11:03.650Z,5.4
2018-01-03T02:12:02.354Z,5.4
2018-01-03T02:13:01.576Z,5.4
2018-01-03T02:14:00.408Z,5.4
2018-01-03T02:15:00.049Z,5.4
2018-01-03T02:15:58.775Z,5.4
2018-01-03T02:16:57.886Z,5.4
2018-01-03T02:17:56.780Z,5.4
2018-01-03T02:18:55.569Z,5.4
2018-01-03T02:19:54.675Z,5.4
2018-01-03T02:20:53.573Z,5.3
2018-01-03T02:21:53.079Z,5.4
2018-01-03T02:23:50.854Z,5.4
2018-01-03T02:24:49.750Z,5.4
2018-01-03T02:25:49.360Z,5.4
2018-01-03T02:26:48.254Z,5.4
2018-01-03T02:27:47.255Z,5.4
2018-01-03T02:28:45.971Z,5.4
2018-01-03T02:29:44.974Z,5.4
2018-01-03T02:30:44.078Z,5.4
2018-01-03T02:31:42.975Z,5.4
2018-01-03T02:32:13.401Z,5.4
2018-01-03T02:32:43.609Z,5.4
2018-01-03T02:33:14.022Z,5.4
2018-01-03T02:34:40.298Z,5.4
2018-01-03T02:35:39.408Z,5.4
2018-01-03T02:36:38.628Z,5.4
2018-01-03T02:37:37.733Z,5.4
2018-01-03T02:38:36.839Z,5.4
2018-01-03T02:39:35.344Z,5.4
2018-01-03T02:40:34.849Z,5.4
2018-01-03T02:41:33.971Z,5.4
2018-01-03T02:42:32.700Z,5.4
2018-01-03T02:43:31.820Z,5.4
2018-01-03T02:44:30.948Z,5.4
2018-01-03T02:45:29.774Z,5.4
2018-01-03T02:46:28.888Z,5.4
2018-01-03T02:47:28.001Z,5.4
2018-01-03T02:49:26.112Z,5.4
2018-01-03T02:50:25.337Z,5.4
2018-01-03T02:51:23.834Z,5.4
2018-01-03T02:52:23.045Z,5.4
2018-01-03T02:53:22.045Z,5.4
2018-01-03T02:54:21.051Z,5.4
2018-01-03T02:55:20.054Z,5.4
2018-01-03T02:56:19.373Z,5.4
2018-01-03T02:57:18.479Z,5.4
2018-01-03T02:58:17.486Z,5.4
2018-01-03T02:59:16.505Z,5.4
2018-01-03T03:00:15.719Z,5.4
2018-01-03T03:01:14.505Z,5.4
2018-01-03T03:02:13.512Z,5.4
2018-01-03T03:03:12.414Z,5.4
2018-01-03T03:04:11.521Z,5.4
2018-01-03T03:05:10.785Z,5.4
2018-01-03T03:06:09.893Z,5.5
2018-01-03T03:07:08.490Z,5.5
2018-01-03T03:08:07.604Z,5.5
2018-01-03T03:09:06.607Z,5.5
2018-01-03T03:10:05.714Z,5.5
2018-01-03T03:11:05.223Z,5.5
2018-01-03T03:12:04.226Z,5.5
2018-01-03T03:12:34.658Z,5.5
2018-01-03T03:13:05.083Z,5.5
2018-01-03T03:14:02.070Z,5.5
2018-01-03T03:15:01.183Z,5.5
2018-01-03T03:16:00.414Z,5.5
2018-01-03T03:16:59.023Z,5.5
2018-01-03T03:17:57.923Z,5.5
2018-01-03T03:18:57.434Z,5.5
2018-01-03T03:19:56.231Z,5.5
2018-01-03T03:20:55.237Z,5.5
2018-01-03T03:21:54.240Z,5.5
2018-01-03T03:22:53.349Z,5.5
2018-01-03T03:23:52.641Z,5.6
2018-01-03T03:24:51.535Z,5.6
2018-01-03T03:25:50.745Z,5.6
2018-01-03T03:26:49.958Z,5.5
2018-01-03T03:27:48.553Z,5.5
2018-01-03T03:28:18.978Z,5.5
2018-01-03T03:28:49.194Z,5.5
2018-01-03T03:29:46.474Z,5.5
2018-01-03T03:30:45.877Z,5.5
2018-01-03T03:31:44.886Z,5.4
2018-01-03T03:32:43.994Z,5.4
2018-01-03T03:33:42.992Z,5.4
2018-01-03T03:34:41.991Z,5.4
2018-01-03T03:35:41.092Z,5.3
2018-01-03T03:36:40.204Z,5.3
2018-01-03T03:37:39.308Z,5.2
2018-01-03T03:38:38.018Z,5.1
2018-01-03T03:39:37.025Z,5.1
2018-01-03T03:40:36.023Z,5.1
2018-01-03T03:41:35.334Z,5
2018-01-03T03:42:34.442Z,5
2018-01-03T03:43:33.142Z,5
2018-01-03T03:44:32.731Z,5
2018-01-03T03:45:31.513Z,4.9
2018-01-03T03:46:30.602Z,4.9
2018-01-03T03:47:29.592Z,4.9
2018-01-03T03:48:28.479Z,4.9
2018-01-03T03:49:27.363Z,4.9
2018-01-03T03:50:26.859Z,4.9
2018-01-03T03:51:25.608Z,4.9
2018-01-03T03:52:24.494Z,4.8
2018-01-03T03:53:23.594Z,4.8
2018-01-03T03:54:22.478Z,4.8
2018-01-03T03:55:22.080Z,4.8
2018-01-03T03:56:20.571Z,4.8
2018-01-03T03:56:51.091Z,4.8
2018-01-03T03:57:21.399Z,4.8
2018-01-03T03:57:51.710Z,4.8
2018-01-03T03:58:22.021Z,4.8
2018-01-03T03:58:52.225Z,4.8
2018-01-03T04:00:16.774Z,4.7
2018-01-03T04:01:16.274Z,4.7
2018-01-03T04:03:14.368Z,4.7
2018-01-03T04:04:13.467Z,4.7
2018-01-03T04:05:12.248Z,4.7
2018-01-03T04:06:11.346Z,4.7
2018-01-03T04:06:41.546Z,4.7
2018-01-03T04:07:11.851Z,4.7
2018-01-03T04:07:42.549Z,4.7
2018-01-03T04:08:12.955Z,4.7
2018-01-03T04:08:43.469Z,4.7
2018-01-03T04:09:13.879Z,4.7
2018-01-03T04:09:44.289Z,4.7
2018-01-03T04:10:14.702Z,4.7
2018-01-03T04:10:45.010Z,4.7
2018-01-03T04:12:05.351Z,4.6
2018-01-03T04:13:04.748Z,4.6
2018-01-03T04:14:03.744Z,4.6
2018-01-03T04:15:02.505Z,4.6
2018-01-03T04:16:01.497Z,4.6
2018-01-03T04:17:00.590Z,4.6
2018-01-03T04:17:59.686Z,4.6
2018-01-03T04:18:58.576Z,4.6
2018-01-03T04:19:57.779Z,4.6
2018-01-03T04:20:56.873Z,4.6
2018-01-03T04:21:55.972Z,4.6
2018-01-03T04:22:54.964Z,4.6
2018-01-03T04:23:53.855Z,4.6
2018-01-03T04:24:53.060Z,4.6
2018-01-03T04:25:51.758Z,4.6
2018-01-03T04:26:51.260Z,4.6
2018-01-03T04:27:49.949Z,4.6
2018-01-03T04:28:48.833Z,4.6
2018-01-03T04:29:48.220Z,4.5
2018-01-03T04:30:46.918Z,4.5
2018-01-03T04:31:46.518Z,4.5
2018-01-03T04:32:45.112Z,4.6
2018-01-03T04:33:44.502Z,4.5
2018-01-03T04:35:42.297Z,4.5
2018-01-03T04:36:41.382Z,4.5
2018-01-03T04:37:40.481Z,4.5
2018-01-03T04:38:39.479Z,4.5
2018-01-03T04:39:38.474Z,4.5
2018-01-03T04:40:37.576Z,4.6
2018-01-03T04:41:36.518Z,4.5
2018-01-03T04:42:35.510Z,4.5
2018-01-03T04:43:34.504Z,4.5
2018-01-03T04:44:33.594Z,4.5
2018-01-03T04:45:32.482Z,4.5
2018-01-03T04:46:31.469Z,4.6
2018-01-03T04:47:30.463Z,4.6
2018-01-03T04:48:01.061Z,4.6
2018-01-03T04:48:31.683Z,4.6
2018-01-03T04:49:01.884Z,4.6
2018-01-03T04:49:32.096Z,4.6
2018-01-03T04:50:02.507Z,4.6
2018-01-03T04:50:32.926Z,4.6
2018-01-03T04:51:03.438Z,4.6
2018-01-03T04:52:25.684Z,4.6
2018-01-03T04:53:24.988Z,4.6
2018-01-03T04:54:24.085Z,4.6
2018-01-03T04:55:23.078Z,4.6
2018-01-03T04:56:22.282Z,4.6
2018-01-03T04:57:20.781Z,4.6
2018-01-03T04:58:20.209Z,4.6
2018-01-03T04:59:19.422Z,4.6
2018-01-03T05:00:18.120Z,4.6
2018-01-03T05:00:48.441Z,4.6
2018-01-03T05:01:18.743Z,4.6
2018-01-03T05:02:16.225Z,4.6
2018-01-03T05:04:14.202Z,4.6
2018-01-03T05:05:13.195Z,4.6
2018-01-03T05:06:12.290Z,4.6
2018-01-03T05:07:11.486Z,4.6
2018-01-03T05:08:10.475Z,4.7
2018-01-03T05:09:09.461Z,4.6
2018-01-03T05:10:08.449Z,4.6
2018-01-03T05:11:07.539Z,4.6
2018-01-03T05:12:06.527Z,4.7
2018-01-03T05:13:05.518Z,4.7
2018-01-03T05:14:04.724Z,4.7
2018-01-03T05:15:03.712Z,4.7
2018-01-03T05:16:02.508Z,4.7
2018-01-03T05:17:01.497Z,4.7
2018-01-03T05:18:00.587Z,4.7
2018-01-03T05:18:59.466Z,4.7
2018-01-03T05:19:58.457Z,4.7
2018-01-03T05:20:57.946Z,4.7
2018-01-03T05:21:56.932Z,4.7
2018-01-03T05:22:55.529Z,4.7
2018-01-03T05:23:55.123Z,4.7
2018-01-03T05:24:54.121Z,4.8
2018-01-03T05:25:52.715Z,4.8
2018-01-03T05:26:52.203Z,4.8
2018-01-03T05:27:51.297Z,4.8
2018-01-03T05:28:49.888Z,4.8
2018-01-03T05:30:48.369Z,4.8
2018-01-03T05:31:46.963Z,4.8
2018-01-03T05:32:46.157Z,4.8
2018-01-03T05:33:45.248Z,4.8
2018-01-03T05:34:44.447Z,4.8
2018-01-03T05:35:43.253Z,4.8
2018-01-03T05:36:42.234Z,4.8
2018-01-03T05:37:41.008Z,4.8
2018-01-03T05:38:40.603Z,4.8
2018-01-03T05:39:39.199Z,4.8
2018-01-03T05:40:38.401Z,4.8
2018-01-03T05:41:37.499Z,4.8
2018-01-03T05:42:36.598Z,4.8
2018-01-03T05:43:35.593Z,4.8
2018-01-03T05:44:34.587Z,4.8
2018-01-03T05:45:05.106Z,4.8
2018-01-03T05:46:32.599Z,4.8
2018-01-03T05:47:31.699Z,4.8
2018-01-03T05:48:30.583Z,4.8
2018-01-03T05:50:28.859Z,4.9
2018-01-03T05:51:28.060Z,4.9
2018-01-03T05:52:26.949Z,4.9
2018-01-03T05:53:25.834Z,4.9
2018-01-03T05:54:24.929Z,4.9
2018-01-03T05:55:23.919Z,4.9
2018-01-03T05:56:22.915Z,4.9
2018-01-03T05:57:21.803Z,5
2018-01-03T05:58:21.003Z,5
2018-01-03T06:00:19.163Z,5
2018-01-03T06:01:18.363Z,5
2018-01-03T06:02:17.058Z,5.1
2018-01-03T06:03:16.054Z,5.1
2018-01-03T06:04:15.049Z,5.1
2018-01-03T06:05:14.334Z,5
2018-01-03T06:06:12.984Z,5
2018-01-03T06:07:12.590Z,5
2018-01-03T06:08:11.503Z,5
2018-01-03T06:09:10.200Z,5
2018-01-03T06:10:09.481Z,5
2018-01-03T06:11:08.687Z,5
2018-01-03T06:12:07.390Z,5
2018-01-03T06:13:06.277Z,5
2018-01-03T06:14:05.769Z,5
2018-01-03T06:15:04.476Z,5
2018-01-03T06:16:03.761Z,5
2018-01-03T06:17:02.757Z,5
2018-01-03T06:18:01.739Z,5
2018-01-03T06:19:59.612Z,5
2018-01-03T06:21:58.088Z,5
2018-01-03T06:22:56.683Z,5
2018-01-03T06:23:55.670Z,5
2018-01-03T06:24:26.080Z,5
2018-01-03T06:24:56.489Z,5
2018-01-03T06:25:26.791Z,5
2018-01-03T06:25:57.209Z,5
2018-01-03T06:26:27.620Z,5
2018-01-03T06:28:51.149Z,5
2018-01-03T06:29:50.135Z,5
2018-01-03T06:30:49.036Z,5
2018-01-03T06:31:48.136Z,5
2018-01-03T06:32:47.233Z,5
2018-01-03T06:33:46.220Z,5
2018-01-03T06:34:45.317Z,5
2018-01-03T06:35:44.403Z,5
2018-01-03T06:36:43.502Z,5
2018-01-03T06:37:42.492Z,5
2018-01-03T06:38:41.589Z,5
2018-01-03T06:40:39.568Z,5
2018-01-03T06:41:38.456Z,5
2018-01-03T06:42:37.545Z,5
2018-01-03T06:43:36.749Z,5.1
2018-01-03T06:44:35.950Z,5.1
2018-01-03T06:45:34.541Z,5.1
2018-01-03T06:46:33.425Z,5.1
2018-01-03T06:47:32.923Z,5.1
2018-01-03T06:48:31.811Z,5.1
2018-01-03T06:49:30.793Z,5.1
2018-01-03T06:50:29.992Z,5.1
2018-01-03T06:51:29.094Z,5.1
2018-01-03T06:52:28.189Z,5.1
2018-01-03T06:53:27.287Z,5.1
2018-01-03T06:54:25.986Z,5.1
2018-01-03T06:55:25.089Z,5.1
2018-01-03T06:56:24.185Z,5.1
2018-01-03T06:57:23.284Z,5.1
2018-01-03T06:58:22.078Z,5.1
2018-01-03T06:59:21.421Z,5.1
2018-01-03T07:00:20.412Z,5.1
2018-01-03T07:01:19.618Z,5.1
2018-01-03T07:02:18.513Z,5.2
2018-01-03T07:03:17.410Z,5.2
2018-01-03T07:04:16.389Z,5.3
2018-01-03T07:05:15.700Z,5.3
2018-01-03T07:05:46.108Z,5.3
2018-01-03T07:06:16.408Z,5.3
2018-01-03T07:06:46.919Z,5.3
2018-01-03T07:07:17.406Z,5.3
2018-01-03T07:07:47.634Z,5.3
2018-01-03T07:09:11.595Z,5.3
2018-01-03T07:10:10.688Z,5.3
2018-01-03T07:11:09.889Z,5.3
2018-01-03T07:12:08.692Z,5.4
2018-01-03T07:13:07.789Z,5.4
2018-01-03T07:14:06.676Z,5.4
2018-01-03T07:15:05.665Z,5.4
2018-01-03T07:15:35.970Z,5.4
2018-01-03T07:17:04.157Z,5.4
2018-01-03T07:18:03.147Z,5.4
2018-01-03T07:19:01.852Z,5.4
2018-01-03T07:20:00.957Z,5.4
2018-01-03T07:21:00.165Z,5.4
2018-01-03T07:21:59.149Z,5.4
2018-01-03T07:22:58.242Z,5.5
2018-01-03T07:24:56.213Z,5.5
2018-01-03T07:25:55.312Z,5.5
2018-01-03T07:26:54.306Z,5.5
2018-01-03T07:27:53.506Z,5.5
2018-01-03T07:28:52.385Z,5.5
2018-01-03T07:29:51.478Z,5.6
2018-01-03T07:30:50.367Z,5.5
2018-01-03T07:31:49.357Z,5.5
2018-01-03T07:32:48.857Z,5.6
2018-01-03T07:33:47.843Z,5.6
2018-01-03T07:34:46.832Z,5.6
2018-01-03T07:35:45.633Z,5.6
2018-01-03T07:36:45.018Z,5.6
2018-01-03T07:37:43.926Z,5.6
2018-01-03T07:38:42.919Z,5.6
2018-01-03T07:39:41.904Z,5.6
2018-01-03T07:40:40.894Z,5.6
2018-01-03T07:41:40.097Z,5.6
2018-01-03T07:42:39.188Z,5.6
2018-01-03T07:43:38.180Z,5.6
2018-01-03T07:44:37.167Z,5.6
2018-01-03T07:45:36.160Z,5.7
2018-01-03T07:46:35.256Z,5.7
2018-01-03T07:47:34.247Z,5.7
2018-01-03T07:48:33.137Z,5.7
2018-01-03T07:49:32.336Z,5.7
2018-01-03T07:50:31.338Z,5.7
2018-01-03T07:51:30.769Z,5.7
2018-01-03T07:54:27.417Z,5.8
2018-01-03T07:55:26.625Z,5.8
2018-01-03T07:56:25.510Z,5.8
2018-01-03T07:57:24.607Z,5.8
2018-01-03T07:58:24.029Z,5.9
2018-01-03T07:59:22.926Z,5.9
2018-01-03T08:01:20.898Z,5.9
2018-01-03T08:02:19.994Z,6
2018-01-03T08:03:18.881Z,6
2018-01-03T08:04:17.980Z,6
2018-01-03T08:05:17.082Z,6
2018-01-03T08:06:16.185Z,6
2018-01-03T08:07:15.391Z,6
2018-01-03T08:08:14.490Z,6
2018-01-03T08:09:13.381Z,6
2018-01-03T08:10:12.075Z,6
2018-01-03T08:11:11.469Z,6
2018-01-03T08:12:10.457Z,6.1
2018-01-03T08:13:09.341Z,6.1
2018-01-03T08:14:08.336Z,6.1
2018-01-03T08:15:07.533Z,6.1
2018-01-03T08:16:06.530Z,6.1
2018-01-03T08:17:05.632Z,6.1
2018-01-03T08:18:04.634Z,6.1
2018-01-03T08:19:03.614Z,6.1
2018-01-03T08:20:02.616Z,6.2
2018-01-03T08:21:02.114Z,6.2
2018-01-03T08:22:00.664Z,6.2
2018-01-03T08:23:00.154Z,6.3
2018-01-03T08:23:59.039Z,6.3
2018-01-03T08:24:29.341Z,6.3
2018-01-03T08:24:59.546Z,6.3
2018-01-03T08:25:57.275Z,6.4
2018-01-03T08:26:56.258Z,6.4
2018-01-03T08:27:55.567Z,6.4
2018-01-03T08:28:54.050Z,6.4
2018-01-03T08:29:53.247Z,6.5
2018-01-03T08:30:52.341Z,6.5
2018-01-03T08:31:51.447Z,6.6
2018-01-03T08:32:50.655Z,6.6
2018-01-03T08:33:49.753Z,6.7
2018-01-03T08:34:20.061Z,6.7
2018-01-03T08:34:50.578Z,6.7
2018-01-03T08:35:20.989Z,6.7
2018-01-03T08:35:51.503Z,6.7
2018-01-03T08:36:46.761Z,6.7
2018-01-03T08:37:45.760Z,6.7
2018-01-03T08:38:44.846Z,6.7
2018-01-03T08:39:43.945Z,6.7
2018-01-03T08:40:43.040Z,6.7
2018-01-03T08:41:42.024Z,6.7
2018-01-03T08:42:41.120Z,6.7
2018-01-03T08:43:40.317Z,6.7
2018-01-03T08:44:39.018Z,6.8
2018-01-03T08:45:38.004Z,6.7
2018-01-03T08:46:37.646Z,6.8
2018-01-03T08:47:36.341Z,6.8
2018-01-03T08:49:34.422Z,6.9
2018-01-03T08:50:33.309Z,6.9
2018-01-03T08:51:32.195Z,6.9
2018-01-03T08:52:31.689Z,7
2018-01-03T08:53:30.787Z,7
2018-01-03T08:54:29.785Z,7
2018-01-03T08:55:28.983Z,7.1
2018-01-03T08:56:27.965Z,7.1
2018-01-03T08:57:26.952Z,7.1
2018-01-03T08:58:25.942Z,7.1
2018-01-03T08:59:25.150Z,7.2
2018-01-03T09:00:24.193Z,7.2
2018-01-03T09:01:22.978Z,7.2
2018-01-03T09:02:22.287Z,7.2
2018-01-03T09:03:21.270Z,7.2
2018-01-03T09:04:20.368Z,7.3
2018-01-03T09:05:19.460Z,7.3
2018-01-03T09:06:18.452Z,7.3
2018-01-03T09:07:17.653Z,7.3
2018-01-03T09:08:16.456Z,7.3
2018-01-03T09:09:15.443Z,7.3
2018-01-03T09:10:14.542Z,7.3
2018-01-03T09:11:13.645Z,7.4
2018-01-03T09:12:12.637Z,7.4
2018-01-03T09:13:11.726Z,7.4
2018-01-03T09:14:11.112Z,7.4
2018-01-03T09:14:41.315Z,7.4
2018-01-03T09:15:11.619Z,7.4
2018-01-03T09:15:42.029Z,7.4
2018-01-03T09:17:08.091Z,7.5
2018-01-03T09:18:07.077Z,7.5
2018-01-03T09:19:06.079Z,7.5
2018-01-03T09:20:05.470Z,7.6
2018-01-03T09:21:04.461Z,7.6
2018-01-03T09:22:03.563Z,7.6
2018-01-03T09:23:02.662Z,7.6
2018-01-03T09:24:01.905Z,7.6
2018-01-03T09:25:00.896Z,7.6
2018-01-03T09:25:59.598Z,7.6
2018-01-03T09:26:59.021Z,7.6
2018-01-03T09:27:58.117Z,7.7
2018-01-03T09:28:56.706Z,7.7
2018-01-03T09:29:56.409Z,7.7
2018-01-03T09:31:53.901Z,7.8
2018-01-03T09:32:53.292Z,7.8
2018-01-03T09:33:52.495Z,7.8
2018-01-03T09:34:51.708Z,7.8
2018-01-03T09:35:50.408Z,7.9
2018-01-03T09:36:49.758Z,7.9
2018-01-03T09:37:48.746Z,8
2018-01-03T09:38:47.531Z,8
2018-01-03T09:39:46.744Z,7.9
2018-01-03T09:40:45.527Z,7.9
2018-01-03T09:41:45.121Z,8
2018-01-03T09:42:43.900Z,8
2018-01-03T09:43:43.139Z,8.1
2018-01-03T09:44:13.439Z,8.1
2018-01-03T09:44:43.852Z,8.1
2018-01-03T09:45:41.337Z,8.2
2018-01-03T09:46:40.216Z,8.2
2018-01-03T09:47:39.098Z,8.3
2018-01-03T09:48:38.707Z,8.3
2018-01-03T09:49:37.293Z,8.3
2018-01-03T09:51:35.780Z,8.4
2018-01-03T09:52:34.982Z,8.4
2018-01-03T09:53:34.081Z,8.5
2018-01-03T09:55:32.168Z,8.4
2018-01-03T09:56:02.582Z,8.4
2018-01-03T09:56:32.886Z,8.5
2018-01-03T09:57:30.372Z,8.5
2018-01-03T09:58:29.371Z,8.5
2018-01-03T09:59:28.367Z,8.5
2018-01-03T10:00:27.471Z,8.5
2018-01-03T10:02:25.549Z,8.6
2018-01-03T10:03:24.535Z,8.7
2018-01-03T10:04:23.736Z,8.7
2018-01-03T10:06:22.211Z,8.7
2018-01-03T10:07:20.691Z,8.7
2018-01-03T10:08:20.287Z,8.7
2018-01-03T10:09:19.272Z,8.7
2018-01-03T10:10:18.312Z,8.7
2018-01-03T10:10:48.813Z,8.7
2018-01-03T10:11:19.622Z,8.8
2018-01-03T10:12:16.201Z,8.8
2018-01-03T10:13:15.402Z,8.9
2018-01-03T10:14:14.505Z,8.9
2018-01-03T10:15:13.496Z,8.9
2018-01-03T10:16:12.594Z,8.9
2018-01-03T10:17:11.702Z,9
2018-01-03T10:18:10.797Z,9
2018-01-03T10:19:09.785Z,9.1
2018-01-03T10:20:09.292Z,9.1
2018-01-03T10:21:07.879Z,9.1
2018-01-03T10:22:07.489Z,9.1
2018-01-03T10:23:06.375Z,9.1
2018-01-03T10:24:05.364Z,9.1
2018-01-03T10:25:04.361Z,9.1
2018-01-03T10:26:03.665Z,9.1
2018-01-03T10:27:02.858Z,9.2
2018-01-03T10:28:02.016Z,9.2
2018-01-03T10:29:01.116Z,9.2
2018-01-03T10:30:00.334Z,9.2
2018-01-03T10:30:59.224Z,9.2
2018-01-03T10:31:58.110Z,9.3
2018-01-03T10:32:57.209Z,9.3
2018-01-03T10:33:56.521Z,9.4
2018-01-03T10:34:55.516Z,9.4
2018-01-03T10:35:54.507Z,9.5
2018-01-03T10:36:53.712Z,9.5
2018-01-03T10:37:52.491Z,9.5
2018-01-03T10:38:51.985Z,9.5
2018-01-03T10:39:50.974Z,9.5
2018-01-03T10:40:50.072Z,9.6
2018-01-03T10:41:20.477Z,9.6
2018-01-03T10:41:50.989Z,9.6
2018-01-03T10:42:47.861Z,9.6
2018-01-03T10:43:47.357Z,9.6
2018-01-03T10:44:46.340Z,9.6
2018-01-03T10:45:45.439Z,9.5
2018-01-03T10:46:44.748Z,9.5
2018-01-03T10:47:43.856Z,9.5
2018-01-03T10:48:43.058Z,9.5
2018-01-03T10:49:41.945Z,9.4
2018-01-03T10:50:12.471Z,9.4
2018-01-03T10:50:42.995Z,9.3
2018-01-03T10:51:13.697Z,9.3
2018-01-03T10:51:43.999Z,9.2
2018-01-03T10:52:14.464Z,9.2
2018-01-03T10:52:44.905Z,9.1
2018-01-03T10:53:15.106Z,9.1
2018-01-03T10:54:37.350Z,8.9
2018-01-03T10:55:36.234Z,8.9
2018-01-03T10:56:35.832Z,8.8
2018-01-03T10:57:34.823Z,8.8
2018-01-03T10:58:33.816Z,8.7
2018-01-03T10:59:32.909Z,8.7
2018-01-03T11:00:32.005Z,8.7
2018-01-03T11:01:31.097Z,8.7
2018-01-03T11:02:30.087Z,8.6
2018-01-03T11:03:00.711Z,8.6
2018-01-03T11:03:30.721Z,8.6
2018-01-03T11:04:01.129Z,8.6
2018-01-03T11:05:27.395Z,8.6
2018-01-03T11:06:26.387Z,8.5
2018-01-03T11:07:25.780Z,8.5
2018-01-03T11:08:24.666Z,8.5
2018-01-03T11:10:23.353Z,8.4
2018-01-03T11:11:22.052Z,8.4
2018-01-03T11:12:21.349Z,8.3
2018-01-03T11:13:20.059Z,8.2
2018-01-03T11:14:19.055Z,8.1
2018-01-03T11:15:18.763Z,7.9
2018-01-03T11:16:17.753Z,7.9
2018-01-03T11:17:16.749Z,7.8
2018-01-03T11:18:15.853Z,7.9
2018-01-03T11:19:15.055Z,7.9
2018-01-03T11:20:14.148Z,7.8
2018-01-03T11:21:13.135Z,7.7
2018-01-03T11:22:12.336Z,7.7
2018-01-03T11:23:11.039Z,7.6
2018-01-03T11:24:10.429Z,7.6
2018-01-03T11:25:09.421Z,7.5
2018-01-03T11:26:08.309Z,7.4
2018-01-03T11:27:07.404Z,7.3
2018-01-03T11:28:06.502Z,7
2018-01-03T11:29:05.998Z,6.7
2018-01-03T11:30:05.096Z,6.2
2018-01-03T11:31:04.085Z,6
2018-01-03T11:31:34.603Z,6
2018-01-03T11:32:04.907Z,5.8
2018-01-03T11:32:35.218Z,5.8
2018-01-03T11:33:06.017Z,5.6
2018-01-03T11:33:36.317Z,5.6
2018-01-03T11:34:06.940Z,5.5
2018-01-03T11:34:37.366Z,5.5
2018-01-03T11:35:59.504Z,5.3
2018-01-03T11:36:58.269Z,5.3
2018-01-03T11:37:57.367Z,5.2
2018-01-03T11:39:55.637Z,5.3
2018-01-03T11:40:54.726Z,5.4
2018-01-03T11:41:53.931Z,5.5
2018-01-03T11:42:53.026Z,5.6
2018-01-03T11:43:52.228Z,5.6
2018-01-03T11:44:22.635Z,5.6
2018-01-03T11:45:49.917Z,5.6
2018-01-03T11:46:49.123Z,5.7
2018-01-03T11:47:48.010Z,5.7
2018-01-03T11:48:47.116Z,5.7
2018-01-03T11:50:45.202Z,5.8
2018-01-03T11:51:44.190Z,5.8
2018-01-03T11:52:43.386Z,5.8
2018-01-03T11:53:42.274Z,5.9
2018-01-03T11:54:41.978Z,6
2018-01-03T11:55:40.367Z,6
2018-01-03T11:56:39.866Z,6
2018-01-03T11:58:37.950Z,6.1
2018-01-03T11:59:37.048Z,6.1
2018-01-03T12:00:36.054Z,6.1
2018-01-03T12:01:35.048Z,6.1
2018-01-03T12:02:34.035Z,6.1
2018-01-03T12:03:33.125Z,6.1
2018-01-03T12:04:32.218Z,6.1
2018-01-03T12:05:31.208Z,6.1
2018-01-03T12:06:30.299Z,6.1
2018-01-03T12:07:29.629Z,6.1
2018-01-03T12:08:28.755Z,6.1
2018-01-03T12:09:27.361Z,6.1
2018-01-03T12:10:26.676Z,6.1
2018-01-03T12:12:24.866Z,6.1
2018-01-03T12:13:24.074Z,6.1
2018-01-03T12:14:22.456Z,6.1
2018-01-03T12:15:21.954Z,6.1
2018-01-03T12:16:20.841Z,6.1
2018-01-03T12:17:20.040Z,6.2
2018-01-03T12:18:19.144Z,6.2
2018-01-03T12:19:18.244Z,6.2
2018-01-03T12:21:16.017Z,6.1
2018-01-03T12:22:15.116Z,6.1
2018-01-03T12:23:14.421Z,6.1
2018-01-03T12:24:13.520Z,6.1
2018-01-03T12:25:12.617Z,6.2
2018-01-03T12:25:43.132Z,6.2
2018-01-03T12:26:13.328Z,6.2
2018-01-03T12:27:10.308Z,6.3
2018-01-03T12:28:09.298Z,6.3
2018-01-03T12:29:08.510Z,6.3
2018-01-03T12:29:38.636Z,6.3
2018-01-03T12:30:08.942Z,6.3
2018-01-03T12:31:06.422Z,6.3
2018-01-03T12:32:05.912Z,6.3
2018-01-03T12:33:04.722Z,6.3
2018-01-03T12:34:03.930Z,6.3
2018-01-03T12:35:02.706Z,6.3
2018-01-03T12:37:01.436Z,6.2
2018-01-03T12:38:00.187Z,6.3
2018-01-03T12:40:57.231Z,6.3
2018-01-03T12:41:56.624Z,6.3
2018-01-03T12:42:55.618Z,6.3
2018-01-03T12:43:54.503Z,6.3
2018-01-03T12:44:53.488Z,6.3
2018-01-03T12:45:52.481Z,6.3
2018-01-03T12:46:51.480Z,6.3
2018-01-03T12:47:50.678Z,6.3
2018-01-03T12:48:49.562Z,6.3
2018-01-03T12:49:48.653Z,6.3
2018-01-03T12:50:47.535Z,6.3
2018-01-03T12:51:46.829Z,6.4
2018-01-03T12:52:46.029Z,6.3
2018-01-03T12:53:44.910Z,6.3
2018-01-03T12:54:43.786Z,6.3
2018-01-03T12:55:42.987Z,6.3
2018-01-03T12:56:42.075Z,6.3
2018-01-03T12:57:41.280Z,6.3
2018-01-03T12:58:40.055Z,6.3
2018-01-03T12:59:39.550Z,6.3
2018-01-03T13:00:38.436Z,6.4
2018-01-03T13:01:37.648Z,6.4
2018-01-03T13:02:36.637Z,6.4
2018-01-03T13:03:35.624Z,6.4
2018-01-03T13:04:34.727Z,6.4
2018-01-03T13:05:33.829Z,6.4
2018-01-03T13:06:32.713Z,6.4
2018-01-03T13:07:32.001Z,6.4
2018-01-03T13:08:30.811Z,6.4
2018-01-03T13:09:00.927Z,6.4
2018-01-03T13:09:31.244Z,6.5
2018-01-03T13:10:01.540Z,6.5
2018-01-03T13:10:31.744Z,6.5
2018-01-03T13:11:02.157Z,6.5
2018-01-03T13:12:26.914Z,6.6
2018-01-03T13:13:25.915Z,6.7
2018-01-03T13:14:24.904Z,6.7
2018-01-03T13:15:24.396Z,6.8
2018-01-03T13:16:23.069Z,6.8
2018-01-03T13:17:22.098Z,6.9
2018-01-03T13:18:21.485Z,7
2018-01-03T13:18:52.183Z,7
2018-01-03T13:20:19.649Z,7
2018-01-03T13:20:50.065Z,7
2018-01-03T13:21:20.258Z,7.1
2018-01-03T13:21:50.675Z,7.1
2018-01-03T13:23:16.849Z,7.2
2018-01-03T13:24:16.048Z,7.2
2018-01-03T13:25:14.852Z,7.2
2018-01-03T13:26:13.833Z,7.3
2018-01-03T13:27:13.042Z,7.3
2018-01-03T13:28:12.027Z,7.3
2018-01-03T13:29:11.127Z,7.3
2018-01-03T13:30:10.114Z,7.3
2018-01-03T13:31:09.001Z,7.3
2018-01-03T13:32:08.388Z,7.3
2018-01-03T13:33:07.379Z,7.3
2018-01-03T13:34:06.480Z,7.4
2018-01-03T13:35:05.570Z,7.4
2018-01-03T13:36:04.765Z,7.3
2018-01-03T13:37:03.728Z,7.3